createdAt,value
2023-02-07T00:01:25.121Z,-0.43
2023-02-07T00:03:54.955Z,-0.44
2023-02-07T00:06:24.103Z,-0.45
2023-02-07T00:08:51.945Z,-0.42
2023-02-07T00:11:19.796Z,-0.38
2023-02-07T00:13:49.472Z,-0.36
2023-02-07T00:16:16.401Z,-0.35
2023-02-07T00:18:44.213Z,-0.33
2023-02-07T00:21:19.121Z,-0.33
2023-02-07T00:23:46.305Z,-0.33
2023-02-07T00:26:17.061Z,-0.33
2023-02-07T00:28:44.251Z,-0.32
2023-02-07T00:31:12.350Z,-0.33
2023-02-07T00:33:40.268Z,-0.39
2023-02-07T00:36:11.658Z,-0.40
2023-02-07T00:38:38.914Z,-0.42
2023-02-07T00:41:06.100Z,-0.39
2023-02-07T00:43:33.452Z,-0.31
2023-02-07T00:46:01.868Z,-0.29
2023-02-07T00:48:29.726Z,-0.27
2023-02-07T00:50:56.795Z,-0.27
2023-02-07T00:53:24.286Z,-0.29
2023-02-07T00:55:51.311Z,-0.28
2023-02-07T00:58:18.316Z,-0.27
2023-02-07T01:00:46.317Z,-0.28
2023-02-07T01:03:13.208Z,-0.28
2023-02-07T01:05:40.202Z,-0.27
2023-02-07T01:08:10.138Z,-0.23
2023-02-07T01:10:39.448Z,-0.21
2023-02-07T01:13:06.308Z,-0.19
2023-02-07T01:15:38.396Z,-0.19
2023-02-07T01:18:05.686Z,-0.15
2023-02-07T01:20:32.794Z,-0.15
2023-02-07T01:22:59.765Z,-0.13
2023-02-07T01:25:26.683Z,-0.14
2023-02-07T01:27:56.670Z,-0.17
2023-02-07T01:30:23.604Z,-0.17
2023-02-07T01:32:52.072Z,-0.19
2023-02-07T01:35:19.261Z,-0.20
2023-02-07T01:37:46.029Z,-0.22
2023-02-07T01:40:13.344Z,-0.15
2023-02-07T01:42:40.303Z,-0.12
2023-02-07T01:45:30.096Z,-0.18
2023-02-07T01:48:01.628Z,-0.17
2023-02-07T01:50:34.044Z,-0.14
2023-02-07T01:53:01.911Z,-0.10
2023-02-07T01:55:31.008Z,-0.09
2023-02-07T01:57:58.559Z,-0.12
2023-02-07T02:00:25.704Z,-0.13
2023-02-07T02:02:52.754Z,-0.11
2023-02-07T02:05:19.750Z,-0.09
2023-02-07T02:07:47.728Z,-0.04
2023-02-07T02:10:19.739Z,-0.01
2023-02-07T02:13:00.154Z,0.01
2023-02-07T02:15:47.812Z,-0.06
2023-02-07T02:19:03.070Z,-0.12
2023-02-07T02:21:42.614Z,-0.13
2023-02-07T02:24:18.673Z,-0.10
2023-02-07T02:27:24.940Z,-0.04
2023-02-07T02:30:00.063Z,-0.00
2023-02-07T02:32:54.012Z,-0.10
2023-02-07T02:35:45.843Z,-0.09
2023-02-07T02:38:31.613Z,-0.02
2023-02-07T02:41:06.200Z,0.01
2023-02-07T02:43:45.826Z,0.05
2023-02-07T02:46:34.241Z,0.08
2023-02-07T02:49:01.852Z,0.10
2023-02-07T02:51:29.868Z,0.09
2023-02-07T02:53:57.924Z,0.10
2023-02-07T02:57:04.069Z,0.13
2023-02-07T02:59:50.764Z,0.20
2023-02-07T03:02:29.275Z,0.25
2023-02-07T03:05:14.913Z,0.31
2023-02-07T03:07:53.261Z,0.36
2023-02-07T03:10:29.236Z,0.43
2023-02-07T03:12:58.380Z,0.47
2023-02-07T03:15:31.354Z,0.50
2023-02-07T03:18:19.779Z,0.50
2023-02-07T03:20:50.407Z,0.41
2023-02-07T03:23:17.412Z,0.31
2023-02-07T03:25:44.857Z,0.28
2023-02-07T03:28:12.022Z,0.24
2023-02-07T03:30:38.904Z,0.17
2023-02-07T03:33:09.581Z,0.11
2023-02-07T03:35:42.272Z,0.05
2023-02-07T03:38:11.773Z,-0.02
2023-02-07T03:40:44.460Z,-0.04
2023-02-07T03:43:22.025Z,-0.07
2023-02-07T03:45:49.060Z,-0.14
2023-02-07T03:48:15.950Z,-0.20
2023-02-07T03:50:42.810Z,-0.25
2023-02-07T03:53:10.206Z,-0.29
2023-02-07T03:55:37.902Z,-0.33
2023-02-07T03:58:06.980Z,-0.33
2023-02-07T04:00:34.307Z,-0.34
2023-02-07T04:03:02.067Z,-0.35
2023-02-07T04:05:28.982Z,-0.33
2023-02-07T04:07:55.735Z,-0.35
2023-02-07T04:10:22.592Z,-0.37
2023-02-07T04:12:55.387Z,-0.38
2023-02-07T04:15:23.387Z,-0.40
2023-02-07T04:17:50.371Z,-0.39
2023-02-07T04:20:17.530Z,-0.39
2023-02-07T04:22:44.633Z,-0.38
2023-02-07T04:25:11.735Z,-0.39
2023-02-07T04:27:38.981Z,-0.40
2023-02-07T04:30:06.920Z,-0.42
2023-02-07T04:32:33.960Z,-0.42
2023-02-07T04:35:00.856Z,-0.44
2023-02-07T04:37:27.947Z,-0.47
2023-02-07T04:39:54.967Z,-0.50
2023-02-07T04:42:21.763Z,-0.51
2023-02-07T04:44:49.116Z,-0.49
2023-02-07T04:47:16.604Z,-0.48
2023-02-07T04:49:43.852Z,-0.43
2023-02-07T04:52:10.746Z,-0.40
2023-02-07T04:54:38.462Z,-0.40
2023-02-07T04:57:05.626Z,-0.41
2023-02-07T04:59:33.586Z,-0.40
2023-02-07T05:02:00.979Z,-0.38
2023-02-07T05:04:27.921Z,-0.39
2023-02-07T05:06:54.852Z,-0.40
2023-02-07T05:09:27.288Z,-0.42
2023-02-07T05:11:54.141Z,-0.44
2023-02-07T05:14:22.612Z,-0.43
2023-02-07T05:16:49.530Z,-0.41
2023-02-07T05:19:16.296Z,-0.40
2023-02-07T05:21:43.047Z,-0.37
2023-02-07T05:24:09.803Z,-0.38
2023-02-07T05:26:38.093Z,-0.42
2023-02-07T05:29:06.526Z,-0.42
2023-02-07T05:31:53.971Z,-0.41
2023-02-07T05:34:20.869Z,-0.39
2023-02-07T05:36:47.983Z,-0.41
2023-02-07T05:39:14.889Z,-0.42
2023-02-07T05:41:44.377Z,-0.43
2023-02-07T05:44:12.333Z,-0.44
2023-02-07T05:46:42.582Z,-0.43
2023-02-07T05:49:09.368Z,-0.45
2023-02-07T05:51:36.209Z,-0.45
2023-02-07T05:54:03.188Z,-0.43
2023-02-07T05:56:30.090Z,-0.41
2023-02-07T05:58:58.162Z,-0.38
2023-02-07T06:01:25.084Z,-0.34
2023-02-07T06:03:52.048Z,-0.31
2023-02-07T06:06:18.950Z,-0.28
2023-02-07T06:08:45.911Z,-0.30
2023-02-07T06:11:13.921Z,-0.34
2023-02-07T06:13:40.921Z,-0.35
2023-02-07T06:16:09.480Z,-0.39
2023-02-07T06:18:37.406Z,-0.40
2023-02-07T06:21:04.913Z,-0.41
2023-02-07T06:23:32.316Z,-0.42
2023-02-07T06:25:59.277Z,-0.44
2023-02-07T06:28:26.190Z,-0.42
2023-02-07T06:30:54.440Z,-0.37
2023-02-07T06:33:21.465Z,-0.33
2023-02-07T06:35:49.174Z,-0.32
2023-02-07T06:38:16.793Z,-0.31
2023-02-07T06:40:44.570Z,-0.31
2023-02-07T06:43:12.054Z,-0.29
2023-02-07T06:45:39.183Z,-0.27
2023-02-07T06:48:06.736Z,-0.20
2023-02-07T06:50:34.202Z,-0.16
2023-02-07T06:53:04.196Z,-0.12
2023-02-07T06:55:32.112Z,-0.03
2023-02-07T06:57:59.263Z,0.01
2023-02-07T07:00:26.189Z,0.07
2023-02-07T07:02:53.259Z,0.14
2023-02-07T07:05:20.428Z,0.20
2023-02-07T07:07:48.288Z,0.26
2023-02-07T07:10:15.452Z,0.36
2023-02-07T07:12:43.029Z,0.46
2023-02-07T07:15:10.263Z,0.52
2023-02-07T07:17:37.126Z,0.62
2023-02-07T07:20:04.940Z,0.70
2023-02-07T07:22:32.155Z,0.79
2023-02-07T07:24:58.995Z,0.86
2023-02-07T07:27:26.346Z,0.92
2023-02-07T07:29:53.356Z,0.98
2023-02-07T07:32:33.214Z,1.05
2023-02-07T07:35:02.344Z,1.14
2023-02-07T07:37:29.454Z,1.26
2023-02-07T07:39:56.273Z,1.34
2023-02-07T07:42:23.620Z,1.37
2023-02-07T07:44:57.233Z,1.46
2023-02-07T07:47:26.704Z,1.49
2023-02-07T07:49:53.777Z,1.55
2023-02-07T07:52:21.023Z,1.59
2023-02-07T07:54:48.476Z,1.55
2023-02-07T07:57:15.913Z,1.51
2023-02-07T07:59:43.762Z,1.51
2023-02-07T08:02:12.345Z,1.58
2023-02-07T08:04:39.928Z,1.62
2023-02-07T08:07:09.307Z,1.62
2023-02-07T08:09:36.683Z,1.58
2023-02-07T08:12:03.811Z,1.52
2023-02-07T08:14:30.887Z,1.41
2023-02-07T08:16:57.868Z,1.34
2023-02-07T08:19:25.492Z,1.34
2023-02-07T08:21:53.017Z,1.26
2023-02-07T08:24:20.191Z,1.21
2023-02-07T08:26:47.311Z,1.23
2023-02-07T08:29:14.106Z,1.24
2023-02-07T08:31:41.158Z,1.29
2023-02-07T08:34:08.501Z,1.38
2023-02-07T08:36:35.756Z,1.42
2023-02-07T08:39:05.222Z,1.42
2023-02-07T08:41:34.301Z,1.43
2023-02-07T08:44:01.132Z,1.46
2023-02-07T08:46:28.509Z,1.49
2023-02-07T08:48:55.730Z,1.58
2023-02-07T08:51:22.608Z,1.69
2023-02-07T08:53:49.523Z,1.76
2023-02-07T08:56:16.774Z,1.75
2023-02-07T08:58:45.197Z,1.84
2023-02-07T09:01:12.904Z,1.97
2023-02-07T09:03:40.302Z,2.06
2023-02-07T09:06:07.997Z,2.17
2023-02-07T09:08:35.150Z,2.30
2023-02-07T09:11:02.132Z,2.40
2023-02-07T09:13:30.100Z,2.44
2023-02-07T09:15:57.438Z,2.46
2023-02-07T09:18:25.203Z,2.48
2023-02-07T09:20:53.121Z,2.57
2023-02-07T09:23:20.730Z,2.63
2023-02-07T09:25:49.332Z,2.62
2023-02-07T09:28:17.106Z,2.50
2023-02-07T09:30:44.755Z,2.36
2023-02-07T09:33:13.421Z,2.22
2023-02-07T09:35:43.269Z,2.07
2023-02-07T09:38:13.005Z,2.05
2023-02-07T09:53:17.202Z,1.90
2023-02-07T09:56:06.363Z,2.27
2023-02-07T09:58:40.992Z,2.33
2023-02-07T10:01:15.311Z,2.48
2023-02-07T10:04:19.263Z,2.60
2023-02-07T10:06:58.278Z,2.66
2023-02-07T10:09:33.112Z,2.65
2023-02-07T10:12:43.552Z,2.69
2023-02-07T10:15:33.774Z,2.77
2023-02-07T10:18:17.555Z,2.78
2023-02-07T10:21:00.110Z,2.73
2023-02-07T10:23:51.724Z,2.76
2023-02-07T10:26:23.965Z,2.81
2023-02-07T10:29:04.466Z,2.78
2023-02-07T10:31:33.819Z,2.71
2023-02-07T10:34:11.063Z,2.70
2023-02-07T10:36:39.277Z,2.67
2023-02-07T10:39:17.064Z,2.62
2023-02-07T10:41:45.340Z,2.50
2023-02-07T10:44:18.987Z,2.38
2023-02-07T10:46:55.443Z,2.29
2023-02-07T10:49:26.099Z,2.31
2023-02-07T10:51:59.509Z,2.34
2023-02-07T10:54:27.882Z,2.36
2023-02-07T10:57:03.031Z,2.34
2023-02-07T10:59:40.754Z,2.34
2023-02-07T11:02:29.344Z,2.35
2023-02-07T11:05:24.003Z,2.37
2023-02-07T11:08:10.996Z,2.32
2023-02-07T11:10:42.045Z,2.30
2023-02-07T11:13:18.258Z,2.32
2023-02-07T11:15:57.075Z,2.35
2023-02-07T11:18:31.552Z,2.36
2023-02-07T11:20:59.777Z,2.31
2023-02-07T11:23:28.008Z,2.22
2023-02-07T11:25:59.930Z,2.21
2023-02-07T11:28:33.420Z,2.21
2023-02-07T11:31:28.253Z,2.21
2023-02-07T11:34:10.984Z,2.21
2023-02-07T11:36:39.240Z,2.21
2023-02-07T11:39:15.673Z,2.24
2023-02-07T11:41:58.934Z,2.22
2023-02-07T11:44:29.853Z,2.28
2023-02-07T11:47:03.693Z,2.35
2023-02-07T11:49:47.272Z,2.40
2023-02-07T11:52:15.517Z,2.40
2023-02-07T11:54:58.229Z,2.39
2023-02-07T11:57:29.000Z,2.42
2023-02-07T12:00:06.925Z,2.55
2023-02-07T12:02:48.813Z,2.70
2023-02-07T12:05:24.796Z,2.80
2023-02-07T12:07:57.802Z,2.94
2023-02-07T12:10:29.790Z,2.96
2023-02-07T12:13:09.958Z,2.91
2023-02-07T12:16:04.716Z,2.77
2023-02-07T12:18:40.848Z,2.55
2023-02-07T12:21:22.727Z,2.42
2023-02-07T12:24:04.576Z,2.32
2023-02-07T12:26:37.682Z,2.29
2023-02-07T12:29:54.141Z,2.33
2023-02-07T12:32:44.169Z,2.41
2023-02-07T12:35:28.066Z,2.44
2023-02-07T12:38:25.802Z,2.41
2023-02-07T12:41:15.712Z,2.37
2023-02-07T12:44:07.166Z,2.36
2023-02-07T12:46:38.494Z,2.41
2023-02-07T12:49:32.774Z,2.45
2023-02-07T12:52:04.201Z,2.35
2023-02-07T12:54:55.021Z,2.23
2023-02-07T12:57:30.072Z,2.17
2023-02-07T13:00:30.766Z,2.19
2023-02-07T13:03:40.390Z,2.17
2023-02-07T13:06:32.964Z,2.10
2023-02-07T13:09:07.184Z,2.03
2023-02-07T13:11:54.614Z,2.04
2023-02-07T13:14:49.485Z,2.03
2023-02-07T13:17:37.673Z,1.99
2023-02-07T13:20:17.241Z,1.98
2023-02-07T13:23:00.768Z,1.99
2023-02-07T13:25:36.161Z,1.97
2023-02-07T13:28:07.189Z,1.87
2023-02-07T13:30:36.068Z,1.79
2023-02-07T13:33:12.299Z,1.79
2023-02-07T13:35:41.329Z,1.76
2023-02-07T13:38:35.537Z,1.71
2023-02-07T13:41:11.872Z,1.66
2023-02-07T13:44:10.238Z,1.57
2023-02-07T13:47:01.731Z,1.46
2023-02-07T13:49:51.055Z,1.39
2023-02-07T13:52:41.386Z,1.33
2023-02-07T13:55:15.756Z,1.32
2023-02-07T13:58:02.691Z,1.33
2023-02-07T14:00:32.908Z,1.37
2023-02-07T14:03:09.202Z,1.38
2023-02-07T14:05:42.985Z,1.43
2023-02-07T14:08:18.129Z,1.41
2023-02-07T14:10:56.220Z,1.35
2023-02-07T14:13:32.279Z,1.26
2023-02-07T14:16:06.441Z,1.15
2023-02-07T14:18:40.982Z,1.03
2023-02-07T14:21:12.054Z,0.91
2023-02-07T14:24:18.612Z,0.83
2023-02-07T14:26:58.576Z,0.70
2023-02-07T14:29:28.869Z,0.58
2023-02-07T14:31:58.923Z,0.46
2023-02-07T14:35:13.017Z,0.37
2023-02-07T14:38:15.780Z,0.30
2023-02-07T14:40:47.132Z,0.20
2023-02-07T14:43:17.709Z,0.13
2023-02-07T14:45:52.121Z,0.07
2023-02-07T14:48:50.958Z,-0.01
2023-02-07T14:51:29.000Z,-0.08
2023-02-07T14:54:32.239Z,-0.16
2023-02-07T14:57:03.802Z,-0.27
2023-02-07T14:59:32.147Z,-0.32
2023-02-07T15:02:29.120Z,-0.40
2023-02-07T15:04:58.451Z,-0.47
2023-02-07T15:07:27.048Z,-0.53
2023-02-07T15:09:55.732Z,-0.58
2023-02-07T15:12:27.813Z,-0.63
2023-02-07T15:14:57.464Z,-0.69
2023-02-07T15:17:36.080Z,-0.76
2023-02-07T15:20:15.588Z,-0.81
2023-02-07T15:22:48.191Z,-0.86
2023-02-07T15:25:16.793Z,-0.88
2023-02-07T15:28:25.336Z,-0.88
2023-02-07T15:30:57.619Z,-0.86
2023-02-07T15:33:28.211Z,-0.84
2023-02-07T15:35:56.516Z,-0.81
2023-02-07T15:38:26.710Z,-0.78
2023-02-07T15:40:55.731Z,-0.75
2023-02-07T15:43:32.689Z,-0.72
2023-02-07T15:46:04.180Z,-0.71
2023-02-07T15:48:33.094Z,-0.71
2023-02-07T15:51:03.351Z,-0.70
2023-02-07T15:53:31.909Z,-0.69
2023-02-07T15:56:00.180Z,-0.69
2023-02-07T15:58:38.051Z,-0.71
2023-02-07T16:01:17.715Z,-0.73
2023-02-07T16:03:46.494Z,-0.77
2023-02-07T16:06:22.937Z,-0.83
2023-02-07T16:08:53.058Z,-0.88
2023-02-07T16:11:27.407Z,-0.93
2023-02-07T16:14:03.978Z,-1.01
2023-02-07T16:16:40.621Z,-1.06
2023-02-07T16:19:32.323Z,-1.10
2023-02-07T16:22:08.415Z,-1.15
2023-02-07T16:24:38.577Z,-1.20
2023-02-07T16:27:07.228Z,-1.25
2023-02-07T16:29:35.794Z,-1.29
2023-02-07T16:32:04.674Z,-1.35
2023-02-07T16:34:33.069Z,-1.36
2023-02-07T16:37:01.407Z,-1.40
2023-02-07T16:39:31.115Z,-1.43
2023-02-07T16:42:06.116Z,-1.45
2023-02-07T16:44:35.842Z,-1.48
2023-02-07T16:47:05.440Z,-1.52
2023-02-07T16:49:34.620Z,-1.56
2023-02-07T16:52:03.949Z,-1.61
2023-02-07T16:54:32.996Z,-1.65
2023-02-07T16:57:04.051Z,-1.70
2023-02-07T16:59:36.097Z,-1.73
2023-02-07T17:02:12.462Z,-1.76
2023-02-07T17:04:41.032Z,-1.81
2023-02-07T17:07:12.082Z,-1.82
2023-02-07T17:09:40.342Z,-1.84
2023-02-07T17:12:10.436Z,-1.84
2023-02-07T17:14:40.631Z,-1.87
2023-02-07T17:17:11.099Z,-1.89
2023-02-07T17:19:39.741Z,-1.91
2023-02-07T17:22:08.391Z,-1.93
2023-02-07T17:24:37.180Z,-1.97
2023-02-07T17:27:05.874Z,-1.99
2023-02-07T17:29:36.221Z,-2.01
2023-02-07T17:32:04.873Z,-2.03
2023-02-07T17:34:33.776Z,-2.09
2023-02-07T17:37:02.275Z,-2.12
2023-02-07T17:39:30.726Z,-2.15
2023-02-07T17:41:59.232Z,-2.18
2023-02-07T17:44:29.167Z,-2.22
2023-02-07T17:46:57.565Z,-2.23
2023-02-07T17:49:26.045Z,-2.26
2023-02-07T17:51:54.242Z,-2.28
2023-02-07T17:54:22.749Z,-2.27
2023-02-07T17:56:51.972Z,-2.27
2023-02-07T18:11:13.974Z,-2.38
2023-02-07T18:13:43.113Z,-2.01
2023-02-07T18:16:12.772Z,-2.08
2023-02-07T18:18:40.507Z,-2.21
2023-02-07T18:21:07.722Z,-2.22
2023-02-07T18:23:34.918Z,-2.25
2023-02-07T18:26:04.218Z,-2.29
2023-02-07T18:28:31.666Z,-2.36
2023-02-07T18:30:58.642Z,-2.40
2023-02-07T18:33:27.340Z,-2.43
2023-02-07T18:35:56.574Z,-2.43
2023-02-07T18:38:31.553Z,-2.46
2023-02-07T18:40:58.870Z,-2.49
2023-02-07T18:43:26.250Z,-2.51
2023-02-07T18:45:53.401Z,-2.53
2023-02-07T18:48:20.626Z,-2.55
2023-02-07T18:50:47.776Z,-2.58
2023-02-07T18:53:20.455Z,-2.63
2023-02-07T18:55:48.664Z,-2.64
2023-02-07T18:58:15.890Z,-2.67
2023-02-07T19:00:42.846Z,-2.69
2023-02-07T19:03:10.142Z,-2.69
2023-02-07T19:05:37.771Z,-2.70
2023-02-07T19:08:04.901Z,-2.72
2023-02-07T19:10:32.171Z,-2.75
2023-02-07T19:12:59.785Z,-2.77
2023-02-07T19:15:27.150Z,-2.78
2023-02-07T19:17:54.393Z,-2.81
2023-02-07T19:20:21.177Z,-2.84
2023-02-07T19:22:52.258Z,-2.85
2023-02-07T19:25:21.013Z,-2.88
2023-02-07T19:27:48.092Z,-2.91
2023-02-07T19:30:15.309Z,-2.95
2023-02-07T19:32:42.733Z,-3.00
2023-02-07T19:35:10.231Z,-3.03
2023-02-07T19:37:37.531Z,-3.05
2023-02-07T19:40:04.696Z,-3.08
2023-02-07T19:42:32.369Z,-3.10
2023-02-07T19:44:59.700Z,-3.12
2023-02-07T19:47:26.748Z,-3.12
2023-02-07T19:49:54.775Z,-3.14
2023-02-07T19:52:25.374Z,-3.16
2023-02-07T19:54:52.288Z,-3.18
2023-02-07T19:57:20.421Z,-3.19
2023-02-07T19:59:48.365Z,-3.23
2023-02-07T20:02:15.540Z,-3.26
2023-02-07T20:04:44.901Z,-3.28
2023-02-07T20:07:11.953Z,-3.29
2023-02-07T20:09:39.374Z,-3.52
2023-02-07T20:12:09.901Z,-3.58
2023-02-07T20:14:36.966Z,-3.59
2023-02-07T20:17:04.180Z,-3.55
2023-02-07T20:19:31.060Z,-3.37
2023-02-07T20:21:57.903Z,-3.36
2023-02-07T20:24:24.815Z,-3.38
2023-02-07T20:26:52.440Z,-3.39
2023-02-07T20:29:19.611Z,-3.41
2023-02-07T20:31:47.034Z,-3.42
2023-02-07T20:34:14.468Z,-3.64
2023-02-07T20:36:42.913Z,-3.73
2023-02-07T20:39:14.984Z,-3.73
2023-02-07T20:41:43.001Z,-3.76
2023-02-07T20:44:14.127Z,-3.79
2023-02-07T20:46:42.077Z,-3.82
2023-02-07T20:49:19.264Z,-3.86
2023-02-07T20:51:49.644Z,-3.88
2023-02-07T20:54:17.307Z,-3.89
2023-02-07T20:56:45.772Z,-3.90
2023-02-07T20:59:18.709Z,-3.90
2023-02-07T21:01:45.700Z,-3.90
2023-02-07T21:04:12.637Z,-3.90
2023-02-07T21:06:40.562Z,-3.91
2023-02-07T21:09:12.884Z,-3.90
2023-02-07T21:11:42.058Z,-3.92
2023-02-07T21:14:15.188Z,-3.93
2023-02-07T21:16:42.088Z,-3.93
2023-02-07T21:19:09.413Z,-3.94
2023-02-07T21:21:37.848Z,-3.96
2023-02-07T21:24:04.921Z,-3.94
2023-02-07T21:26:32.792Z,-3.93
2023-02-07T21:29:01.512Z,-3.96
2023-02-07T21:31:29.147Z,-4.00
2023-02-07T21:33:56.215Z,-4.05
2023-02-07T21:36:26.065Z,-4.07
2023-02-07T21:38:53.903Z,-4.11
2023-02-07T21:41:25.176Z,-4.16
2023-02-07T21:43:53.838Z,-4.18
2023-02-07T21:46:23.281Z,-4.20
2023-02-07T21:48:51.932Z,-4.25
2023-02-07T21:51:21.244Z,-4.27
2023-02-07T21:53:49.298Z,-4.29
2023-02-07T21:56:18.789Z,-4.33
2023-02-07T21:58:45.791Z,-4.36
2023-02-07T22:01:15.971Z,-4.39
2023-02-07T22:03:44.458Z,-4.42
2023-02-07T22:06:11.871Z,-4.48
2023-02-07T22:08:38.850Z,-4.54
2023-02-07T22:11:07.789Z,-4.58
2023-02-07T22:13:35.989Z,-4.61
2023-02-07T22:16:09.653Z,-4.61
2023-02-07T22:18:36.845Z,-4.63
2023-02-07T22:21:23.807Z,-4.63
2023-02-07T22:23:51.095Z,-4.63
2023-02-07T22:26:18.621Z,-4.63
2023-02-07T22:28:45.943Z,-4.63
2023-02-07T22:31:15.546Z,-4.66
2023-02-07T22:33:42.649Z,-4.67
2023-02-07T22:36:23.794Z,-4.68
2023-02-07T22:38:50.979Z,-4.71
2023-02-07T22:41:18.069Z,-4.71
2023-02-07T22:43:44.941Z,-4.52
2023-02-07T22:46:16.520Z,-4.49
2023-02-07T22:48:43.877Z,-4.83
2023-02-07T22:51:17.389Z,-4.53
2023-02-07T22:53:44.434Z,-4.51
2023-02-07T22:56:11.365Z,-4.47
2023-02-07T22:58:38.218Z,-4.44
2023-02-07T23:01:05.248Z,-4.40
2023-02-07T23:03:33.737Z,-4.37
2023-02-07T23:06:04.615Z,-4.35
2023-02-07T23:08:32.327Z,-4.34
2023-02-07T23:11:07.498Z,-4.32
2023-02-07T23:13:34.304Z,-4.35
2023-02-07T23:16:01.165Z,-4.37
2023-02-07T23:18:28.019Z,-4.36
2023-02-07T23:20:55.017Z,-4.32
2023-02-07T23:23:22.796Z,-4.29
2023-02-07T23:25:49.902Z,-4.30
2023-02-07T23:28:16.743Z,-4.29
2023-02-07T23:30:44.116Z,-4.28
2023-02-07T23:33:11.303Z,-4.28
2023-02-07T23:35:38.945Z,-4.28
2023-02-07T23:38:06.037Z,-4.29
2023-02-07T23:40:33.526Z,-4.35
2023-02-07T23:43:02.473Z,-4.36
2023-02-07T23:45:29.334Z,-4.38
2023-02-07T23:47:56.404Z,-4.42
2023-02-07T23:50:26.656Z,-4.49
2023-02-07T23:52:54.194Z,-4.58
2023-02-07T23:55:21.259Z,-4.65
2023-02-07T23:57:48.453Z,-4.70
